sensor_id;sensor_type;location;lat;lon;timestamp;temperature;humidity
13817;DHT22;6979;52.116;5.286;2023-12-20T00:02:26;10.90;99.90
13817;DHT22;6979;52.116;5.286;2023-12-20T00:04:53;10.90;99.90
13817;DHT22;6979;52.116;5.286;2023-12-20T00:07:21;10.90;99.90
13817;DHT22;6979;52.116;5.286;2023-12-20T00:09:48;10.80;99.90
13817;DHT22;6979;52.116;5.286;2023-12-20T00:12:17;10.80;99.90
13817;DHT22;6979;52.116;5.286;2023-12-20T00:14:44;10.80;99.90
13817;DHT22;6979;52.116;5.286;2023-12-20T00:17:13;10.80;99.90
13817;DHT22;6979;52.116;5.286;2023-12-20T00:19:40;10.80;99.90
13817;DHT22;6979;52.116;5.286;2023-12-20T00:22:07;10.70;99.90
13817;DHT22;6979;52.116;5.286;2023-12-20T00:24:35;10.70;99.90
13817;DHT22;6979;52.116;5.286;2023-12-20T00:27:02;10.70;99.90
13817;DHT22;6979;52.116;5.286;2023-12-20T00:29:29;10.70;99.90
13817;DHT22;6979;52.116;5.286;2023-12-20T00:31:56;10.60;99.90
13817;DHT22;6979;52.116;5.286;2023-12-20T00:34:23;10.60;99.90
13817;DHT22;6979;52.116;5.286;2023-12-20T00:36:49;10.60;99.90
13817;DHT22;6979;52.116;5.286;2023-12-20T00:39:16;10.60;99.90
13817;DHT22;6979;52.116;5.286;2023-12-20T00:41:47;10.60;99.90
13817;DHT22;6979;52.116;5.286;2023-12-20T00:44:14;10.50;99.90
13817;DHT22;6979;52.116;5.286;2023-12-20T00:46:41;10.50;99.90
13817;DHT22;6979;52.116;5.286;2023-12-20T00:49:07;10.50;99.90
13817;DHT22;6979;52.116;5.286;2023-12-20T00:51:34;10.50;99.90
13817;DHT22;6979;52.116;5.286;2023-12-20T00:54:01;10.40;99.90
13817;DHT22;6979;52.116;5.286;2023-12-20T00:56:29;10.40;99.90
13817;DHT22;6979;52.116;5.286;2023-12-20T00:58:57;10.40;99.90
13817;DHT22;6979;52.116;5.286;2023-12-20T01:01:24;10.40;99.90
13817;DHT22;6979;52.116;5.286;2023-12-20T01:03:50;10.40;99.90
13817;DHT22;6979;52.116;5.286;2023-12-20T01:06:18;10.40;99.90
13817;DHT22;6979;52.116;5.286;2023-12-20T01:08:45;10.40;99.90
13817;DHT22;6979;52.116;5.286;2023-12-20T01:11:12;10.40;99.90
13817;DHT22;6979;52.116;5.286;2023-12-20T01:13:44;10.40;99.90
13817;DHT22;6979;52.116;5.286;2023-12-20T01:16:13;10.40;99.90
13817;DHT22;6979;52.116;5.286;2023-12-20T01:18:40;10.40;99.90
13817;DHT22;6979;52.116;5.286;2023-12-20T01:21:06;10.40;99.90
13817;DHT22;6979;52.116;5.286;2023-12-20T01:23:33;10.40;99.90
13817;DHT22;6979;52.116;5.286;2023-12-20T01:26:00;10.40;99.90
13817;DHT22;6979;52.116;5.286;2023-12-20T01:28:28;10.40;99.90
13817;DHT22;6979;52.116;5.286;2023-12-20T01:30:55;10.40;99.90
13817;DHT22;6979;52.116;5.286;2023-12-20T01:33:23;10.40;99.90
13817;DHT22;6979;52.116;5.286;2023-12-20T01:35:50;10.40;99.90
13817;DHT22;6979;52.116;5.286;2023-12-20T01:38:17;10.50;99.90
13817;DHT22;6979;52.116;5.286;2023-12-20T01:40:45;10.40;99.90
13817;DHT22;6979;52.116;5.286;2023-12-20T01:43:13;10.50;99.90
13817;DHT22;6979;52.116;5.286;2023-12-20T01:45:40;10.50;99.90
13817;DHT22;6979;52.116;5.286;2023-12-20T01:48:11;10.50;99.90
13817;DHT22;6979;52.116;5.286;2023-12-20T01:50:43;10.50;99.90
13817;DHT22;6979;52.116;5.286;2023-12-20T01:53:11;10.50;99.90
13817;DHT22;6979;52.116;5.286;2023-12-20T01:55:40;10.50;99.90
13817;DHT22;6979;52.116;5.286;2023-12-20T01:58:08;10.50;99.90
13817;DHT22;6979;52.116;5.286;2023-12-20T02:00:38;10.50;99.90
13817;DHT22;6979;52.116;5.286;2023-12-20T02:03:05;10.50;99.90
13817;DHT22;6979;52.116;5.286;2023-12-20T02:05:33;10.50;99.90
13817;DHT22;6979;52.116;5.286;2023-12-20T02:08:01;10.50;99.90
13817;DHT22;6979;52.116;5.286;2023-12-20T02:10:28;10.60;99.90
13817;DHT22;6979;52.116;5.286;2023-12-20T02:12:55;10.60;99.90
13817;DHT22;6979;52.116;5.286;2023-12-20T02:15:22;10.60;99.90
13817;DHT22;6979;52.116;5.286;2023-12-20T02:17:49;10.60;99.90
13817;DHT22;6979;52.116;5.286;2023-12-20T02:20:16;10.60;99.90
13817;DHT22;6979;52.116;5.286;2023-12-20T02:22:44;10.60;99.90
13817;DHT22;6979;52.116;5.286;2023-12-20T02:25:11;10.60;99.90
13817;DHT22;6979;52.116;5.286;2023-12-20T02:27:38;10.60;99.90
13817;DHT22;6979;52.116;5.286;2023-12-20T02:30:06;10.70;99.90
13817;DHT22;6979;52.116;5.286;2023-12-20T02:32:33;10.70;99.90
13817;DHT22;6979;52.116;5.286;2023-12-20T02:35:00;10.70;99.90
13817;DHT22;6979;52.116;5.286;2023-12-20T02:37:27;10.70;99.90
13817;DHT22;6979;52.116;5.286;2023-12-20T02:39:55;10.70;99.90
13817;DHT22;6979;52.116;5.286;2023-12-20T02:42:25;10.70;99.90
13817;DHT22;6979;52.116;5.286;2023-12-20T02:44:51;10.80;99.90
13817;DHT22;6979;52.116;5.286;2023-12-20T02:47:21;10.70;99.90
13817;DHT22;6979;52.116;5.286;2023-12-20T02:49:48;10.80;99.90
13817;DHT22;6979;52.116;5.286;2023-12-20T02:52:15;10.80;99.90
13817;DHT22;6979;52.116;5.286;2023-12-20T02:54:42;10.80;99.90
13817;DHT22;6979;52.116;5.286;2023-12-20T02:57:10;10.90;99.90
13817;DHT22;6979;52.116;5.286;2023-12-20T02:59:39;10.90;99.90
13817;DHT22;6979;52.116;5.286;2023-12-20T03:02:06;10.90;99.90
13817;DHT22;6979;52.116;5.286;2023-12-20T03:04:33;10.90;99.90
13817;DHT22;6979;52.116;5.286;2023-12-20T03:06:59;10.90;99.90
13817;DHT22;6979;52.116;5.286;2023-12-20T03:09:26;10.90;99.90
13817;DHT22;6979;52.116;5.286;2023-12-20T03:11:53;10.90;99.90
13817;DHT22;6979;52.116;5.286;2023-12-20T03:14:21;10.90;99.90
13817;DHT22;6979;52.116;5.286;2023-12-20T03:16:51;10.90;99.90
13817;DHT22;6979;52.116;5.286;2023-12-20T03:19:20;11.00;99.90
13817;DHT22;6979;52.116;5.286;2023-12-20T03:21:46;10.90;99.90
13817;DHT22;6979;52.116;5.286;2023-12-20T03:24:13;11.00;99.90
13817;DHT22;6979;52.116;5.286;2023-12-20T03:26:40;11.00;99.90
13817;DHT22;6979;52.116;5.286;2023-12-20T03:29:07;11.00;99.90
13817;DHT22;6979;52.116;5.286;2023-12-20T03:31:35;11.00;99.90
13817;DHT22;6979;52.116;5.286;2023-12-20T03:34:02;11.00;99.90
13817;DHT22;6979;52.116;5.286;2023-12-20T03:36:29;11.00;99.90
13817;DHT22;6979;52.116;5.286;2023-12-20T03:38:56;11.00;99.90
13817;DHT22;6979;52.116;5.286;2023-12-20T03:41:23;11.00;99.90
13817;DHT22;6979;52.116;5.286;2023-12-20T03:43:49;11.00;99.90
13817;DHT22;6979;52.116;5.286;2023-12-20T03:46:25;11.00;99.90
13817;DHT22;6979;52.116;5.286;2023-12-20T03:48:54;11.00;99.90
13817;DHT22;6979;52.116;5.286;2023-12-20T03:51:21;11.00;99.90
13817;DHT22;6979;52.116;5.286;2023-12-20T03:53:48;11.00;99.90
13817;DHT22;6979;52.116;5.286;2023-12-20T03:56:14;11.00;99.90
13817;DHT22;6979;52.116;5.286;2023-12-20T03:58:41;11.00;99.90
13817;DHT22;6979;52.116;5.286;2023-12-20T04:01:09;11.00;99.90
13817;DHT22;6979;52.116;5.286;2023-12-20T04:03:39;11.00;99.90
13817;DHT22;6979;52.116;5.286;2023-12-20T04:06:10;11.00;99.90
13817;DHT22;6979;52.116;5.286;2023-12-20T04:08:36;11.10;99.90
13817;DHT22;6979;52.116;5.286;2023-12-20T04:11:03;11.10;99.90
13817;DHT22;6979;52.116;5.286;2023-12-20T04:13:30;11.00;99.90
13817;DHT22;6979;52.116;5.286;2023-12-20T04:15:57;11.10;99.90
13817;DHT22;6979;52.116;5.286;2023-12-20T04:18:24;11.10;99.90
13817;DHT22;6979;52.116;5.286;2023-12-20T04:20:51;11.10;99.90
13817;DHT22;6979;52.116;5.286;2023-12-20T04:23:20;11.10;99.90
13817;DHT22;6979;52.116;5.286;2023-12-20T04:25:46;11.10;99.90
13817;DHT22;6979;52.116;5.286;2023-12-20T04:28:13;11.10;99.90
13817;DHT22;6979;52.116;5.286;2023-12-20T04:30:41;11.10;99.90
13817;DHT22;6979;52.116;5.286;2023-12-20T04:33:09;11.10;99.90
13817;DHT22;6979;52.116;5.286;2023-12-20T04:35:39;11.20;99.90
13817;DHT22;6979;52.116;5.286;2023-12-20T04:38:06;11.20;99.90
13817;DHT22;6979;52.116;5.286;2023-12-20T04:40:35;11.20;99.90
13817;DHT22;6979;52.116;5.286;2023-12-20T04:43:02;11.20;99.90
13817;DHT22;6979;52.116;5.286;2023-12-20T04:45:28;11.20;99.90
13817;DHT22;6979;52.116;5.286;2023-12-20T04:47:55;11.20;99.90
13817;DHT22;6979;52.116;5.286;2023-12-20T04:50:22;11.20;99.90
13817;DHT22;6979;52.116;5.286;2023-12-20T04:52:49;11.20;99.90
13817;DHT22;6979;52.116;5.286;2023-12-20T04:55:19;11.30;99.90
13817;DHT22;6979;52.116;5.286;2023-12-20T04:57:47;11.30;99.90
13817;DHT22;6979;52.116;5.286;2023-12-20T05:00:17;11.30;99.90
13817;DHT22;6979;52.116;5.286;2023-12-20T05:02:44;11.30;99.90
13817;DHT22;6979;52.116;5.286;2023-12-20T05:05:11;11.30;99.90
13817;DHT22;6979;52.116;5.286;2023-12-20T05:07:39;11.40;99.90
13817;DHT22;6979;52.116;5.286;2023-12-20T05:10:07;11.40;99.90
13817;DHT22;6979;52.116;5.286;2023-12-20T05:12:34;11.40;99.90
13817;DHT22;6979;52.116;5.286;2023-12-20T05:15:04;11.40;99.90
13817;DHT22;6979;52.116;5.286;2023-12-20T05:17:32;11.40;99.90
13817;DHT22;6979;52.116;5.286;2023-12-20T05:19:59;11.40;99.90
13817;DHT22;6979;52.116;5.286;2023-12-20T05:22:27;11.40;99.90
13817;DHT22;6979;52.116;5.286;2023-12-20T05:24:56;11.40;99.90
13817;DHT22;6979;52.116;5.286;2023-12-20T05:27:23;11.40;99.90
13817;DHT22;6979;52.116;5.286;2023-12-20T05:29:50;11.40;99.90
13817;DHT22;6979;52.116;5.286;2023-12-20T05:32:19;11.40;99.90
13817;DHT22;6979;52.116;5.286;2023-12-20T05:34:46;11.40;99.90
13817;DHT22;6979;52.116;5.286;2023-12-20T05:37:15;11.40;99.90
13817;DHT22;6979;52.116;5.286;2023-12-20T05:39:42;11.40;99.90
13817;DHT22;6979;52.116;5.286;2023-12-20T05:42:09;11.40;99.90
13817;DHT22;6979;52.116;5.286;2023-12-20T05:44:36;11.40;99.90
13817;DHT22;6979;52.116;5.286;2023-12-20T05:47:05;11.40;99.90
13817;DHT22;6979;52.116;5.286;2023-12-20T05:49:34;11.40;99.90
13817;DHT22;6979;52.116;5.286;2023-12-20T05:52:01;11.40;99.90
13817;DHT22;6979;52.116;5.286;2023-12-20T05:54:28;11.40;99.90
13817;DHT22;6979;52.116;5.286;2023-12-20T05:56:55;11.40;99.90
13817;DHT22;6979;52.116;5.286;2023-12-20T05:59:22;11.40;99.90
13817;DHT22;6979;52.116;5.286;2023-12-20T06:01:49;11.40;99.90
13817;DHT22;6979;52.116;5.286;2023-12-20T06:04:16;11.40;99.90
13817;DHT22;6979;52.116;5.286;2023-12-20T06:06:44;11.50;99.90
13817;DHT22;6979;52.116;5.286;2023-12-20T06:09:11;11.50;99.90
13817;DHT22;6979;52.116;5.286;2023-12-20T06:11:38;11.50;99.90
13817;DHT22;6979;52.116;5.286;2023-12-20T06:14:05;11.50;99.90
13817;DHT22;6979;52.116;5.286;2023-12-20T06:16:32;11.50;99.90
13817;DHT22;6979;52.116;5.286;2023-12-20T06:18:59;11.50;99.90
13817;DHT22;6979;52.116;5.286;2023-12-20T06:21:26;11.50;99.90
13817;DHT22;6979;52.116;5.286;2023-12-20T06:23:59;11.50;99.90
13817;DHT22;6979;52.116;5.286;2023-12-20T06:26:25;11.60;99.90
13817;DHT22;6979;52.116;5.286;2023-12-20T06:28:52;11.50;99.90
13817;DHT22;6979;52.116;5.286;2023-12-20T06:31:19;11.50;99.90
13817;DHT22;6979;52.116;5.286;2023-12-20T06:33:46;11.50;99.90
13817;DHT22;6979;52.116;5.286;2023-12-20T06:36:15;11.60;99.90
13817;DHT22;6979;52.116;5.286;2023-12-20T06:38:42;11.60;99.90
13817;DHT22;6979;52.116;5.286;2023-12-20T06:41:13;11.60;99.90
13817;DHT22;6979;52.116;5.286;2023-12-20T06:43:39;11.60;99.90
13817;DHT22;6979;52.116;5.286;2023-12-20T06:46:06;11.60;99.90
13817;DHT22;6979;52.116;5.286;2023-12-20T06:48:32;11.60;99.90
13817;DHT22;6979;52.116;5.286;2023-12-20T06:51:00;11.60;99.90
13817;DHT22;6979;52.116;5.286;2023-12-20T06:53:27;11.60;99.90
13817;DHT22;6979;52.116;5.286;2023-12-20T06:55:54;11.70;99.90
13817;DHT22;6979;52.116;5.286;2023-12-20T06:58:23;11.70;99.90
13817;DHT22;6979;52.116;5.286;2023-12-20T07:00:53;11.70;99.90
13817;DHT22;6979;52.116;5.286;2023-12-20T07:03:20;11.70;99.90
13817;DHT22;6979;52.116;5.286;2023-12-20T07:05:47;11.70;99.90
13817;DHT22;6979;52.116;5.286;2023-12-20T07:08:14;11.70;99.90
13817;DHT22;6979;52.116;5.286;2023-12-20T07:10:41;11.70;99.90
13817;DHT22;6979;52.116;5.286;2023-12-20T07:13:08;11.70;99.90
13817;DHT22;6979;52.116;5.286;2023-12-20T07:15:36;11.70;99.90
13817;DHT22;6979;52.116;5.286;2023-12-20T07:18:04;11.70;99.90
13817;DHT22;6979;52.116;5.286;2023-12-20T07:20:32;11.80;99.90
13817;DHT22;6979;52.116;5.286;2023-12-20T07:22:59;11.80;99.90
13817;DHT22;6979;52.116;5.286;2023-12-20T07:25:26;11.80;99.90
13817;DHT22;6979;52.116;5.286;2023-12-20T07:27:53;11.80;99.90
13817;DHT22;6979;52.116;5.286;2023-12-20T07:30:22;11.80;99.90
13817;DHT22;6979;52.116;5.286;2023-12-20T07:32:50;11.80;99.90
13817;DHT22;6979;52.116;5.286;2023-12-20T07:35:18;11.80;99.90
13817;DHT22;6979;52.116;5.286;2023-12-20T07:37:44;11.80;99.90
13817;DHT22;6979;52.116;5.286;2023-12-20T07:40:11;11.90;99.90
13817;DHT22;6979;52.116;5.286;2023-12-20T07:42:38;11.90;99.90
13817;DHT22;6979;52.116;5.286;2023-12-20T07:45:06;11.90;99.90
13817;DHT22;6979;52.116;5.286;2023-12-20T07:47:36;11.90;99.90
13817;DHT22;6979;52.116;5.286;2023-12-20T07:50:05;11.90;99.90
13817;DHT22;6979;52.116;5.286;2023-12-20T07:52:32;11.90;99.90
13817;DHT22;6979;52.116;5.286;2023-12-20T07:54:59;11.90;99.90
13817;DHT22;6979;52.116;5.286;2023-12-20T07:57:29;11.90;99.90
13817;DHT22;6979;52.116;5.286;2023-12-20T07:59:56;11.90;99.90
13817;DHT22;6979;52.116;5.286;2023-12-20T08:02:22;11.90;99.90
13817;DHT22;6979;52.116;5.286;2023-12-20T08:04:49;11.90;99.90
13817;DHT22;6979;52.116;5.286;2023-12-20T08:07:17;11.90;99.90
13817;DHT22;6979;52.116;5.286;2023-12-20T08:09:44;12.00;99.90
13817;DHT22;6979;52.116;5.286;2023-12-20T08:12:11;12.00;99.90
13817;DHT22;6979;52.116;5.286;2023-12-20T08:14:41;12.00;99.90
13817;DHT22;6979;52.116;5.286;2023-12-20T08:17:08;12.00;99.90
13817;DHT22;6979;52.116;5.286;2023-12-20T08:19:34;12.00;99.90
13817;DHT22;6979;52.116;5.286;2023-12-20T08:22:02;12.00;99.90
13817;DHT22;6979;52.116;5.286;2023-12-20T08:24:30;12.00;99.90
13817;DHT22;6979;52.116;5.286;2023-12-20T08:27:01;12.10;99.90
13817;DHT22;6979;52.116;5.286;2023-12-20T08:29:28;12.10;99.90
13817;DHT22;6979;52.116;5.286;2023-12-20T08:31:55;12.10;99.90
13817;DHT22;6979;52.116;5.286;2023-12-20T08:34:22;12.10;99.90
13817;DHT22;6979;52.116;5.286;2023-12-20T08:36:49;12.10;99.90
13817;DHT22;6979;52.116;5.286;2023-12-20T08:39:16;12.10;99.90
13817;DHT22;6979;52.116;5.286;2023-12-20T08:41:45;12.10;99.90
13817;DHT22;6979;52.116;5.286;2023-12-20T08:44:11;12.10;99.90
13817;DHT22;6979;52.116;5.286;2023-12-20T08:46:38;12.10;99.90
13817;DHT22;6979;52.116;5.286;2023-12-20T08:49:08;12.10;99.90
13817;DHT22;6979;52.116;5.286;2023-12-20T08:51:35;12.10;99.90
13817;DHT22;6979;52.116;5.286;2023-12-20T08:54:05;12.20;99.90
13817;DHT22;6979;52.116;5.286;2023-12-20T08:56:33;12.10;99.90
13817;DHT22;6979;52.116;5.286;2023-12-20T08:59:01;12.10;99.90
13817;DHT22;6979;52.116;5.286;2023-12-20T09:01:33;12.10;99.90
13817;DHT22;6979;52.116;5.286;2023-12-20T09:04:00;12.20;99.90
13817;DHT22;6979;52.116;5.286;2023-12-20T09:06:26;12.10;99.90
13817;DHT22;6979;52.116;5.286;2023-12-20T09:08:59;12.10;99.90
13817;DHT22;6979;52.116;5.286;2023-12-20T09:11:26;12.20;99.90
13817;DHT22;6979;52.116;5.286;2023-12-20T09:13:53;12.10;99.90
13817;DHT22;6979;52.116;5.286;2023-12-20T09:16:23;12.20;99.90
13817;DHT22;6979;52.116;5.286;2023-12-20T09:18:50;12.20;99.90
13817;DHT22;6979;52.116;5.286;2023-12-20T09:21:18;12.20;99.90
13817;DHT22;6979;52.116;5.286;2023-12-20T09:23:45;12.20;99.90
13817;DHT22;6979;52.116;5.286;2023-12-20T09:26:11;12.20;99.90
13817;DHT22;6979;52.116;5.286;2023-12-20T09:28:38;12.20;99.90
13817;DHT22;6979;52.116;5.286;2023-12-20T09:31:09;12.20;99.90
13817;DHT22;6979;52.116;5.286;2023-12-20T09:33:37;12.20;99.90
13817;DHT22;6979;52.116;5.286;2023-12-20T09:36:09;12.20;99.90
13817;DHT22;6979;52.116;5.286;2023-12-20T09:38:36;12.30;99.90
13817;DHT22;6979;52.116;5.286;2023-12-20T09:41:03;12.30;99.90
13817;DHT22;6979;52.116;5.286;2023-12-20T09:43:30;12.30;99.90
13817;DHT22;6979;52.116;5.286;2023-12-20T09:46:00;12.30;99.90
13817;DHT22;6979;52.116;5.286;2023-12-20T09:48:30;12.40;99.90
13817;DHT22;6979;52.116;5.286;2023-12-20T09:50:59;12.40;99.90
13817;DHT22;6979;52.116;5.286;2023-12-20T09:53:29;12.40;99.90
13817;DHT22;6979;52.116;5.286;2023-12-20T09:55:58;12.40;99.90
13817;DHT22;6979;52.116;5.286;2023-12-20T09:58:26;12.50;99.90
13817;DHT22;6979;52.116;5.286;2023-12-20T10:00:53;12.50;99.90
13817;DHT22;6979;52.116;5.286;2023-12-20T10:03:24;12.50;99.90
13817;DHT22;6979;52.116;5.286;2023-12-20T10:05:52;12.50;99.90
13817;DHT22;6979;52.116;5.286;2023-12-20T10:08:24;12.50;99.90
13817;DHT22;6979;52.116;5.286;2023-12-20T10:10:51;12.60;99.90
13817;DHT22;6979;52.116;5.286;2023-12-20T10:13:18;12.60;99.90
13817;DHT22;6979;52.116;5.286;2023-12-20T10:15:45;12.60;99.90
13817;DHT22;6979;52.116;5.286;2023-12-20T10:18:12;12.60;99.90
13817;DHT22;6979;52.116;5.286;2023-12-20T10:20:40;12.70;99.90
13817;DHT22;6979;52.116;5.286;2023-12-20T10:23:07;12.70;99.90
13817;DHT22;6979;52.116;5.286;2023-12-20T10:25:39;12.70;99.90
13817;DHT22;6979;52.116;5.286;2023-12-20T10:28:11;12.70;99.90
13817;DHT22;6979;52.116;5.286;2023-12-20T10:30:39;12.70;99.90
13817;DHT22;6979;52.116;5.286;2023-12-20T10:33:07;12.70;99.90
13817;DHT22;6979;52.116;5.286;2023-12-20T10:35:34;12.80;99.90
13817;DHT22;6979;52.116;5.286;2023-12-20T10:38:04;12.80;99.90
13817;DHT22;6979;52.116;5.286;2023-12-20T10:40:34;12.80;99.90
13817;DHT22;6979;52.116;5.286;2023-12-20T10:43:04;12.80;99.90
13817;DHT22;6979;52.116;5.286;2023-12-20T10:45:31;12.80;99.90
13817;DHT22;6979;52.116;5.286;2023-12-20T10:47:59;12.80;99.90
13817;DHT22;6979;52.116;5.286;2023-12-20T10:50:27;12.80;99.90
13817;DHT22;6979;52.116;5.286;2023-12-20T10:52:57;12.80;99.90
13817;DHT22;6979;52.116;5.286;2023-12-20T10:55:24;12.90;99.90
13817;DHT22;6979;52.116;5.286;2023-12-20T10:57:52;12.90;99.90
13817;DHT22;6979;52.116;5.286;2023-12-20T11:00:21;12.90;99.90
13817;DHT22;6979;52.116;5.286;2023-12-20T11:02:50;13.00;99.90
13817;DHT22;6979;52.116;5.286;2023-12-20T11:05:25;13.00;99.90
13817;DHT22;6979;52.116;5.286;2023-12-20T11:07:57;13.10;99.90
13817;DHT22;6979;52.116;5.286;2023-12-20T11:10:31;13.20;99.90
13817;DHT22;6979;52.116;5.286;2023-12-20T11:13:12;13.30;99.90
13817;DHT22;6979;52.116;5.286;2023-12-20T11:15:44;13.40;99.90
13817;DHT22;6979;52.116;5.286;2023-12-20T11:18:11;13.50;99.90
13817;DHT22;6979;52.116;5.286;2023-12-20T11:20:39;13.60;99.90
13817;DHT22;6979;52.116;5.286;2023-12-20T11:23:07;13.70;99.90
13817;DHT22;6979;52.116;5.286;2023-12-20T11:25:47;13.70;99.90
13817;DHT22;6979;52.116;5.286;2023-12-20T11:28:14;13.70;99.90
13817;DHT22;6979;52.116;5.286;2023-12-20T11:30:50;13.80;99.90
13817;DHT22;6979;52.116;5.286;2023-12-20T11:33:17;13.80;99.90
13817;DHT22;6979;52.116;5.286;2023-12-20T11:35:47;13.70;99.90
13817;DHT22;6979;52.116;5.286;2023-12-20T11:38:14;13.70;99.90
13817;DHT22;6979;52.116;5.286;2023-12-20T11:40:42;13.70;99.90
13817;DHT22;6979;52.116;5.286;2023-12-20T11:43:09;13.60;99.90
13817;DHT22;6979;52.116;5.286;2023-12-20T11:45:36;13.60;99.90
13817;DHT22;6979;52.116;5.286;2023-12-20T11:48:06;13.60;99.90
13817;DHT22;6979;52.116;5.286;2023-12-20T11:50:34;13.60;99.90
13817;DHT22;6979;52.116;5.286;2023-12-20T11:53:03;13.60;99.90
13817;DHT22;6979;52.116;5.286;2023-12-20T11:55:30;13.60;99.90
13817;DHT22;6979;52.116;5.286;2023-12-20T11:57:57;13.60;99.90
13817;DHT22;6979;52.116;5.286;2023-12-20T12:00:24;13.60;99.90
13817;DHT22;6979;52.116;5.286;2023-12-20T12:02:58;13.60;99.90
13817;DHT22;6979;52.116;5.286;2023-12-20T12:05:26;13.60;99.90
13817;DHT22;6979;52.116;5.286;2023-12-20T12:07:53;13.60;99.90
13817;DHT22;6979;52.116;5.286;2023-12-20T12:10:20;13.50;99.90
13817;DHT22;6979;52.116;5.286;2023-12-20T12:12:47;13.50;99.90
13817;DHT22;6979;52.116;5.286;2023-12-20T12:15:14;13.50;99.90
13817;DHT22;6979;52.116;5.286;2023-12-20T12:17:41;13.50;99.90
13817;DHT22;6979;52.116;5.286;2023-12-20T12:20:11;13.50;99.90
13817;DHT22;6979;52.116;5.286;2023-12-20T12:22:39;13.50;99.90
13817;DHT22;6979;52.116;5.286;2023-12-20T12:25:10;13.50;99.90
13817;DHT22;6979;52.116;5.286;2023-12-20T12:27:40;13.50;99.90
13817;DHT22;6979;52.116;5.286;2023-12-20T12:30:08;13.50;99.90
13817;DHT22;6979;52.116;5.286;2023-12-20T12:32:35;13.50;99.90
13817;DHT22;6979;52.116;5.286;2023-12-20T12:35:05;13.50;99.90
13817;DHT22;6979;52.116;5.286;2023-12-20T12:37:37;13.50;99.90
13817;DHT22;6979;52.116;5.286;2023-12-20T12:40:09;13.50;99.90
13817;DHT22;6979;52.116;5.286;2023-12-20T12:42:36;13.50;99.90
13817;DHT22;6979;52.116;5.286;2023-12-20T12:45:04;13.50;99.90
13817;DHT22;6979;52.116;5.286;2023-12-20T12:47:33;13.50;99.90
13817;DHT22;6979;52.116;5.286;2023-12-20T12:50:00;13.50;99.90
13817;DHT22;6979;52.116;5.286;2023-12-20T12:52:27;13.50;99.90
13817;DHT22;6979;52.116;5.286;2023-12-20T12:54:54;13.50;99.90
13817;DHT22;6979;52.116;5.286;2023-12-20T12:57:22;13.50;99.90
13817;DHT22;6979;52.116;5.286;2023-12-20T12:59:50;13.50;99.90
13817;DHT22;6979;52.116;5.286;2023-12-20T13:02:16;13.50;99.90
13817;DHT22;6979;52.116;5.286;2023-12-20T13:04:44;13.50;99.90
13817;DHT22;6979;52.116;5.286;2023-12-20T13:07:11;13.50;99.90
13817;DHT22;6979;52.116;5.286;2023-12-20T13:09:42;13.50;99.90
13817;DHT22;6979;52.116;5.286;2023-12-20T13:12:09;13.50;99.90
13817;DHT22;6979;52.116;5.286;2023-12-20T13:14:37;13.50;99.90
13817;DHT22;6979;52.116;5.286;2023-12-20T13:17:04;13.50;99.90
13817;DHT22;6979;52.116;5.286;2023-12-20T13:19:31;13.50;99.90
13817;DHT22;6979;52.116;5.286;2023-12-20T13:21:58;13.50;99.90
13817;DHT22;6979;52.116;5.286;2023-12-20T13:24:25;13.50;99.90
13817;DHT22;6979;52.116;5.286;2023-12-20T13:27:02;13.50;99.90
13817;DHT22;6979;52.116;5.286;2023-12-20T13:29:29;13.50;99.90
13817;DHT22;6979;52.116;5.286;2023-12-20T13:32:00;13.50;99.90
13817;DHT22;6979;52.116;5.286;2023-12-20T13:34:26;13.50;99.90
13817;DHT22;6979;52.116;5.286;2023-12-20T13:36:53;13.50;99.90
13817;DHT22;6979;52.116;5.286;2023-12-20T13:39:20;13.50;99.90
13817;DHT22;6979;52.116;5.286;2023-12-20T13:41:48;13.50;99.90
13817;DHT22;6979;52.116;5.286;2023-12-20T13:44:14;13.50;99.90
13817;DHT22;6979;52.116;5.286;2023-12-20T13:46:41;13.50;99.90
13817;DHT22;6979;52.116;5.286;2023-12-20T13:49:10;13.50;99.90
13817;DHT22;6979;52.116;5.286;2023-12-20T13:51:37;13.50;99.90
13817;DHT22;6979;52.116;5.286;2023-12-20T13:54:05;13.50;99.90
13817;DHT22;6979;52.116;5.286;2023-12-20T13:56:31;13.50;99.90
13817;DHT22;6979;52.116;5.286;2023-12-20T13:58:59;13.50;99.90
13817;DHT22;6979;52.116;5.286;2023-12-20T14:01:26;13.50;99.90
13817;DHT22;6979;52.116;5.286;2023-12-20T14:03:53;13.50;99.90
13817;DHT22;6979;52.116;5.286;2023-12-20T14:06:21;13.50;99.90
13817;DHT22;6979;52.116;5.286;2023-12-20T14:08:48;13.50;99.90
13817;DHT22;6979;52.116;5.286;2023-12-20T14:11:14;13.50;99.90
13817;DHT22;6979;52.116;5.286;2023-12-20T14:13:41;13.50;99.90
13817;DHT22;6979;52.116;5.286;2023-12-20T14:16:09;13.60;99.90
13817;DHT22;6979;52.116;5.286;2023-12-20T14:18:36;13.50;99.90
13817;DHT22;6979;52.116;5.286;2023-12-20T14:21:06;13.50;99.90
13817;DHT22;6979;52.116;5.286;2023-12-20T14:23:37;13.50;99.90
13817;DHT22;6979;52.116;5.286;2023-12-20T14:26:03;13.50;99.90
13817;DHT22;6979;52.116;5.286;2023-12-20T14:28:30;13.50;99.90
13817;DHT22;6979;52.116;5.286;2023-12-20T14:30:57;13.50;99.90
13817;DHT22;6979;52.116;5.286;2023-12-20T14:33:27;13.50;99.90
13817;DHT22;6979;52.116;5.286;2023-12-20T14:35:57;13.50;99.90
13817;DHT22;6979;52.116;5.286;2023-12-20T14:38:27;13.50;99.90
13817;DHT22;6979;52.116;5.286;2023-12-20T14:40:55;13.50;99.90
13817;DHT22;6979;52.116;5.286;2023-12-20T14:43:22;13.50;99.90
13817;DHT22;6979;52.116;5.286;2023-12-20T14:45:49;13.50;99.90
13817;DHT22;6979;52.116;5.286;2023-12-20T14:48:16;13.50;99.90
13817;DHT22;6979;52.116;5.286;2023-12-20T14:50:43;13.40;99.90
13817;DHT22;6979;52.116;5.286;2023-12-20T14:53:13;13.40;99.90
13817;DHT22;6979;52.116;5.286;2023-12-20T14:55:43;13.40;99.90
13817;DHT22;6979;52.116;5.286;2023-12-20T14:58:14;13.40;99.90
13817;DHT22;6979;52.116;5.286;2023-12-20T15:00:41;13.40;99.90
13817;DHT22;6979;52.116;5.286;2023-12-20T15:03:10;13.40;99.90
13817;DHT22;6979;52.116;5.286;2023-12-20T15:05:37;13.40;99.90
13817;DHT22;6979;52.116;5.286;2023-12-20T15:08:05;13.40;99.90
13817;DHT22;6979;52.116;5.286;2023-12-20T15:10:32;13.40;99.90
13817;DHT22;6979;52.116;5.286;2023-12-20T15:13:00;13.40;99.90
13817;DHT22;6979;52.116;5.286;2023-12-20T15:15:28;13.40;99.90
13817;DHT22;6979;52.116;5.286;2023-12-20T15:17:58;13.40;99.90
13817;DHT22;6979;52.116;5.286;2023-12-20T15:20:24;13.40;99.90
13817;DHT22;6979;52.116;5.286;2023-12-20T15:22:51;13.40;99.90
13817;DHT22;6979;52.116;5.286;2023-12-20T15:25:19;13.40;99.90
13817;DHT22;6979;52.116;5.286;2023-12-20T15:27:47;13.30;99.90
13817;DHT22;6979;52.116;5.286;2023-12-20T15:30:18;13.30;99.90
13817;DHT22;6979;52.116;5.286;2023-12-20T15:32:49;13.40;99.90
13817;DHT22;6979;52.116;5.286;2023-12-20T15:35:16;13.30;99.90
13817;DHT22;6979;52.116;5.286;2023-12-20T15:37:43;13.30;99.90
13817;DHT22;6979;52.116;5.286;2023-12-20T15:40:11;13.30;99.90
13817;DHT22;6979;52.116;5.286;2023-12-20T15:42:38;13.30;99.90
13817;DHT22;6979;52.116;5.286;2023-12-20T15:45:06;13.30;99.90
13817;DHT22;6979;52.116;5.286;2023-12-20T15:47:34;13.30;99.90
13817;DHT22;6979;52.116;5.286;2023-12-20T15:50:04;13.30;99.90